Time;durP1;ratioP1;P1;durP2;ratioP2;P2;SDS_P1;SDS_P2;PMS_P1;PMS_P2;Temp;Humidity;BMP_temperature;BMP_pressure;BME280_temperature;BME280_humidity;BME280_pressure;Samples;Min_cycle;Max_cycle;Signal;HPM_P1;HPM_P2
2024/01/12 00:02:25;;;;;;;52.03;22.20;;;-4.40;1.00;;;;;;5026020;28;20636;-75
2024/01/12 00:04:50;;;;;;;54.03;24.00;;;-3.80;1.00;;;;;;5021696;28;20647;-74
2024/01/12 00:07:16;;;;;;;52.00;25.00;;;-4.40;1.00;;;;;;5015026;28;20740;-74
2024/01/12 00:09:43;;;;;;;68.37;25.80;;;-4.00;1.00;;;;;;5035501;28;20723;-74
2024/01/12 00:12:09;;;;;;;59.50;26.63;;;-4.50;1.00;;;;;;5026364;28;20289;-75
2024/01/12 00:14:34;;;;;;;57.00;25.10;;;-3.70;1.00;;;;;;5033624;28;20684;-73
2024/01/12 00:17:00;;;;;;;57.10;24.80;;;-4.10;1.00;;;;;;5023684;28;20194;-74
2024/01/12 00:19:25;;;;;;;70.40;26.40;;;-3.90;1.00;;;;;;5037400;28;20204;-75
2024/01/12 00:21:52;;;;;;;60.67;24.67;;;-4.00;1.00;;;;;;5036158;28;20683;-74
2024/01/12 00:24:18;;;;;;;67.03;28.27;;;-4.10;1.00;;;;;;5032407;28;20683;-75
2024/01/12 00:26:43;;;;;;;63.83;27.23;;;-4.60;1.00;;;;;;5031863;28;20559;-75
2024/01/12 00:29:09;;;;;;;64.33;27.23;;;-4.10;1.00;;;;;;5042244;28;20205;-74
2024/01/12 00:31:35;;;;;;;58.60;25.37;;;-3.90;1.00;;;;;;5018976;28;20209;-74
2024/01/12 00:34:01;;;;;;;61.60;24.80;;;-3.80;1.00;;;;;;5029660;28;20820;-75
2024/01/12 00:36:26;;;;;;;64.33;26.27;;;-4.20;1.00;;;;;;5019684;28;20189;-75
2024/01/12 00:38:52;;;;;;;61.23;26.90;;;-4.30;1.00;;;;;;5024139;28;20212;-75
2024/01/12 00:41:17;;;;;;;65.67;27.07;;;-4.60;1.00;;;;;;5025083;28;20376;-73
2024/01/12 00:43:43;;;;;;;60.27;27.20;;;-3.80;1.00;;;;;;5025850;28;20265;-75
2024/01/12 00:46:09;;;;;;;64.67;27.20;;;-4.30;1.00;;;;;;5038417;28;20174;-75
2024/01/12 00:48:34;;;;;;;71.43;31.13;;;-4.30;1.00;;;;;;5029202;28;20208;-74
2024/01/12 00:51:00;;;;;;;70.57;28.50;;;-4.20;1.00;;;;;;5033248;28;20232;-74
2024/01/12 00:53:25;;;;;;;64.07;27.87;;;-4.30;1.00;;;;;;5035767;28;20212;-74
2024/01/12 00:55:51;;;;;;;69.37;29.63;;;-4.20;1.00;;;;;;5041575;28;20219;-74
2024/01/12 00:58:16;;;;;;;69.00;30.73;;;-4.30;1.00;;;;;;5014296;28;20289;-74
2024/01/12 01:00:42;;;;;;;97.37;36.27;;;-4.70;1.00;;;;;;5017378;28;20178;-74
2024/01/12 01:03:07;;;;;;;84.43;34.70;;;-4.20;1.00;;;;;;5037919;28;20200;-75
2024/01/12 01:05:33;;;;;;;97.13;36.93;;;-4.50;1.00;;;;;;5033234;28;20201;-74
2024/01/12 01:07:59;;;;;;;72.63;30.70;;;-4.10;1.00;;;;;;5025590;28;20270;-75
2024/01/12 01:10:24;;;;;;;70.20;30.47;;;-4.10;1.00;;;;;;5028791;28;20428;-74
2024/01/12 01:12:50;;;;;;;68.00;28.37;;;-4.10;1.00;;;;;;5041654;28;20317;-75
2024/01/12 01:15:15;;;;;;;72.97;30.33;;;-4.30;1.00;;;;;;5038453;28;20177;-74
2024/01/12 01:17:41;;;;;;;66.93;27.90;;;-3.90;1.00;;;;;;5033147;28;20185;-73
2024/01/12 01:20:07;;;;;;;67.20;27.53;;;-4.30;1.00;;;;;;5034751;28;20193;-75
2024/01/12 01:22:34;;;;;;;60.47;27.47;;;-4.40;1.00;;;;;;5020531;28;20194;-75
2024/01/12 01:25:03;;;;;;;57.13;28.13;;;-4.20;1.00;;;;;;5025779;28;20432;-74
2024/01/12 01:27:29;;;;;;;57.33;26.10;;;-4.50;1.00;;;;;;5022996;28;20512;-75
2024/01/12 01:29:54;;;;;;;56.20;25.80;;;-4.50;1.00;;;;;;5036685;28;20523;-74
2024/01/12 01:32:20;;;;;;;62.90;26.10;;;-4.30;1.00;;;;;;5024134;28;20198;-74
2024/01/12 01:34:45;;;;;;;62.87;25.40;;;-4.30;1.00;;;;;;5019570;28;20268;-74
2024/01/12 01:37:11;;;;;;;60.20;23.97;;;-4.50;1.00;;;;;;5039685;28;20185;-75
2024/01/12 01:39:36;;;;;;;56.23;25.90;;;-4.50;1.00;;;;;;5023630;28;20204;-74
2024/01/12 01:42:02;;;;;;;58.70;24.33;;;-4.40;1.00;;;;;;5033449;28;20181;-75
2024/01/12 01:44:27;;;;;;;63.30;25.47;;;-4.10;1.00;;;;;;5035930;28;20193;-75
2024/01/12 01:46:56;;;;;;;69.40;26.37;;;-4.50;1.00;;;;;;5023628;28;20204;-74
2024/01/12 01:49:22;;;;;;;57.30;25.63;;;-4.40;1.00;;;;;;5031231;28;20672;-76
2024/01/12 01:51:48;;;;;;;59.10;26.67;;;-4.40;1.00;;;;;;5025693;28;20471;-71
2024/01/12 01:54:14;;;;;;;68.07;27.43;;;-4.70;1.00;;;;;;5025926;28;20424;-75
2024/01/12 01:56:40;;;;;;;53.87;24.30;;;-4.00;1.00;;;;;;5031425;28;20417;-74
2024/01/12 01:59:07;;;;;;;57.80;25.20;;;-4.40;1.00;;;;;;5042345;28;20663;-74
2024/01/12 02:01:33;;;;;;;51.20;24.40;;;-4.40;1.00;;;;;;5023923;28;20425;-74
2024/01/12 02:04:01;;;;;;;59.60;24.70;;;-4.50;1.00;;;;;;5021101;28;20428;-74
2024/01/12 02:06:26;;;;;;;55.67;23.13;;;-4.40;1.00;;;;;;5031371;28;20183;-74
2024/01/12 02:08:52;;;;;;;55.27;22.87;;;-4.30;1.00;;;;;;5029708;28;20441;-74
2024/01/12 02:11:18;;;;;;;57.13;25.10;;;-4.50;1.00;;;;;;5037512;28;20213;-74
2024/01/12 02:13:44;;;;;;;52.97;24.83;;;-4.40;1.00;;;;;;5020240;28;20499;-75
2024/01/12 02:16:10;;;;;;;70.00;24.73;;;-4.50;1.00;;;;;;5020476;28;20192;-75
2024/01/12 02:18:35;;;;;;;51.47;23.47;;;-4.60;1.00;;;;;;5019145;28;20433;-74
2024/01/12 02:21:01;;;;;;;59.80;25.73;;;-4.20;1.00;;;;;;5015201;28;20177;-76
2024/01/12 02:23:26;;;;;;;73.90;26.50;;;-5.00;1.00;;;;;;5026713;28;20208;-75
2024/01/12 02:25:52;;;;;;;47.80;23.23;;;-5.00;1.00;;;;;;5033897;28;20194;-74
2024/01/12 02:28:18;;;;;;;60.70;24.40;;;-4.60;1.00;;;;;;5029049;28;20225;-74
2024/01/12 02:30:44;;;;;;;53.33;23.23;;;-4.50;1.00;;;;;;5009869;28;20657;-75
2024/01/12 02:33:09;;;;;;;47.97;24.83;;;-4.50;1.00;;;;;;5021840;28;20206;-75
2024/01/12 02:35:35;;;;;;;62.23;25.10;;;-4.60;1.00;;;;;;5016946;28;20484;-73
2024/01/12 02:38:00;;;;;;;64.03;25.33;;;-4.60;1.00;;;;;;5015558;28;20186;-73
2024/01/12 02:40:26;;;;;;;62.10;23.90;;;-4.20;1.00;;;;;;5030594;28;20255;-75
2024/01/12 02:42:51;;;;;;;56.47;24.37;;;-4.20;1.00;;;;;;5014549;28;20216;-74
2024/01/12 02:45:17;;;;;;;59.47;24.73;;;-4.70;1.00;;;;;;5018015;28;20183;-73
2024/01/12 02:47:43;;;;;;;54.27;22.33;;;-4.80;1.00;;;;;;5028320;28;20588;-72
2024/01/12 02:50:09;;;;;;;58.63;25.40;;;-4.80;1.00;;;;;;5014381;28;20707;-73
2024/01/12 02:52:35;;;;;;;59.37;25.80;;;-4.80;1.00;;;;;;5031476;28;20460;-74
2024/01/12 02:55:05;;;;;;;59.13;25.13;;;-4.70;1.00;;;;;;5019213;28;20525;-74
2024/01/12 02:57:31;;;;;;;54.47;23.10;;;-4.70;1.00;;;;;;5019269;28;20441;-75
2024/01/12 02:59:57;;;;;;;54.87;22.70;;;-4.80;1.00;;;;;;5008748;28;20821;-72
2024/01/12 03:02:24;;;;;;;56.63;23.13;;;-5.20;1.00;;;;;;5019000;28;20539;-74
2024/01/12 03:04:50;;;;;;;60.10;24.33;;;-4.80;1.00;;;;;;5015644;28;20193;-75
2024/01/12 03:07:15;;;;;;;52.73;25.77;;;-4.70;1.00;;;;;;5037698;28;20455;-73
2024/01/12 03:09:41;;;;;;;48.80;22.13;;;-4.80;1.00;;;;;;5028366;28;20205;-73
2024/01/12 03:12:06;;;;;;;60.10;24.67;;;-4.40;1.00;;;;;;5023778;28;20473;-74
2024/01/12 03:14:32;;;;;;;55.33;24.47;;;-4.60;1.00;;;;;;5041535;28;20205;-75
2024/01/12 03:16:58;;;;;;;54.97;23.67;;;-4.90;1.00;;;;;;5035390;28;20193;-73
2024/01/12 03:19:23;;;;;;;51.83;23.10;;;-4.90;1.00;;;;;;5022056;28;20580;-78
2024/01/12 03:21:49;;;;;;;51.77;22.90;;;-5.30;1.00;;;;;;5036104;28;20192;-73
2024/01/12 03:24:14;;;;;;;63.70;24.07;;;-5.20;1.00;;;;;;5035575;28;20197;-73
2024/01/12 03:26:40;;;;;;;54.10;22.83;;;-4.90;1.00;;;;;;5025010;28;20194;-74
2024/01/12 03:29:05;;;;;;;54.60;21.33;;;-4.90;1.00;;;;;;5038405;28;20214;-73
2024/01/12 03:31:31;;;;;;;47.70;22.50;;;;;;;;;;5024815;28;20609;-73
2024/01/12 03:33:57;;;;;;;45.60;22.50;;;-5.00;1.00;;;;;;5032951;28;20193;-73
2024/01/12 03:36:23;;;;;;;50.63;22.50;;;-4.60;1.00;;;;;;5030013;28;20183;-74
2024/01/12 03:38:49;;;;;;;53.10;24.50;;;-5.50;1.00;;;;;;5024795;28;20201;-76
2024/01/12 03:41:15;;;;;;;56.13;23.47;;;-5.00;1.00;;;;;;5037105;28;20515;-74
2024/01/12 03:43:40;;;;;;;57.90;23.37;;;-5.30;1.00;;;;;;5035525;28;20993;-72
2024/01/12 03:46:06;;;;;;;54.27;23.80;;;-4.60;1.00;;;;;;5022480;28;20181;-72
2024/01/12 03:48:32;;;;;;;56.73;25.23;;;-5.00;1.00;;;;;;5025257;28;20194;-73
2024/01/12 03:50:58;;;;;;;56.17;25.70;;;-5.00;1.00;;;;;;5033546;28;20178;-73
2024/01/12 03:53:24;;;;;;;56.37;23.00;;;-5.10;1.00;;;;;;5040525;28;20456;-74
2024/01/12 03:55:49;;;;;;;57.30;24.37;;;-4.80;1.00;;;;;;5047606;28;20239;-75
2024/01/12 03:58:14;;;;;;;55.77;23.20;;;-5.10;1.00;;;;;;5030136;28;20202;-74
2024/01/12 04:00:40;;;;;;;58.17;25.67;;;-5.10;1.00;;;;;;5035820;28;20679;-73
2024/01/12 04:03:06;;;;;;;51.57;22.93;;;-5.10;1.00;;;;;;5039269;28;20182;-74
2024/01/12 04:05:32;;;;;;;52.77;23.03;;;-4.80;1.00;;;;;;5025104;28;20705;-73
2024/01/12 04:07:57;;;;;;;52.60;24.83;;;-5.00;1.00;;;;;;5046797;28;20641;-79
2024/01/12 04:10:23;;;;;;;58.27;24.80;;;-4.90;1.00;;;;;;5030492;28;20201;-76
2024/01/12 04:12:48;;;;;;;52.30;23.37;;;-5.20;1.00;;;;;;5017311;28;20708;-75
2024/01/12 04:15:14;;;;;;;53.00;23.10;;;-4.50;1.00;;;;;;5021207;28;20193;-76
2024/01/12 04:17:39;;;;;;;53.63;24.03;;;-4.80;1.00;;;;;;5033191;28;20191;-73
2024/01/12 04:20:07;;;;;;;54.07;24.10;;;-5.00;1.00;;;;;;5020141;28;20257;-74
2024/01/12 04:22:33;;;;;;;51.77;24.00;;;-5.30;1.00;;;;;;5027844;28;20195;-74
2024/01/12 04:24:58;;;;;;;46.50;23.07;;;-5.40;1.00;;;;;;5027299;28;20502;-75
2024/01/12 04:27:25;;;;;;;52.73;23.23;;;-5.80;1.00;;;;;;5022573;28;20193;-73
2024/01/12 04:29:50;;;;;;;54.20;22.97;;;-5.40;1.00;;;;;;5024047;28;20198;-74
2024/01/12 04:32:16;;;;;;;50.37;21.53;;;-4.80;1.00;;;;;;5021650;28;21003;-73
2024/01/12 04:34:41;;;;;;;50.33;22.40;;;-5.30;1.00;;;;;;5030948;28;20182;-74
2024/01/12 04:37:07;;;;;;;53.30;23.20;;;-5.70;1.00;;;;;;5031815;28;20264;-78
2024/01/12 04:39:32;;;;;;;54.13;24.33;;;-5.40;1.00;;;;;;5040862;28;20721;-73
2024/01/12 04:41:58;;;;;;;58.03;24.17;;;-5.30;1.00;;;;;;5031624;28;20754;-74
2024/01/12 04:44:23;;;;;;;58.70;23.10;;;-4.90;1.00;;;;;;5032563;28;20210;-73
2024/01/12 04:46:49;;;;;;;55.10;23.10;;;-5.10;1.00;;;;;;5029710;28;20235;-73
2024/01/12 04:49:14;;;;;;;57.77;23.63;;;-5.30;1.00;;;;;;5021967;28;20228;-73
2024/01/12 04:51:40;;;;;;;48.17;21.47;;;-5.30;1.00;;;;;;5030080;28;20512;-73
2024/01/12 04:54:05;;;;;;;56.50;24.27;;;-5.30;1.00;;;;;;5030048;28;20265;-74
2024/01/12 04:56:31;;;;;;;52.77;23.70;;;-5.20;1.00;;;;;;5034152;28;20209;-74
2024/01/12 04:58:57;;;;;;;45.63;22.30;;;-5.30;1.00;;;;;;5041889;28;20228;-72
2024/01/12 05:01:23;;;;;;;54.00;22.93;;;-5.60;1.00;;;;;;5034755;28;20210;-73
2024/01/12 05:03:49;;;;;;;43.37;22.70;;;-5.40;1.00;;;;;;5042361;28;20434;-73
2024/01/12 05:06:14;;;;;;;45.47;21.70;;;-5.40;1.00;;;;;;5024886;28;20178;-75
2024/01/12 05:08:40;;;;;;;45.90;20.60;;;-5.50;1.00;;;;;;5046476;28;20348;-73
2024/01/12 05:11:05;;;;;;;63.03;24.13;;;-5.00;1.00;;;;;;5026851;28;20190;-74
2024/01/12 05:13:31;;;;;;;53.37;22.23;;;-5.90;1.00;;;;;;5026877;28;20237;-74
2024/01/12 05:15:56;;;;;;;49.20;22.00;;;-5.10;1.00;;;;;;5021087;28;20186;-73
2024/01/12 05:18:22;;;;;;;54.37;23.73;;;-5.40;1.00;;;;;;5023176;28;20198;-74
2024/01/12 05:20:47;;;;;;;46.13;22.83;;;-5.10;1.00;;;;;;5025919;28;20181;-75
2024/01/12 05:23:13;;;;;;;63.60;27.17;;;-5.50;1.00;;;;;;5022951;28;20273;-73
2024/01/12 05:25:38;;;;;;;54.03;23.43;;;-5.30;1.00;;;;;;5040862;28;20217;-73
2024/01/12 05:28:04;;;;;;;54.93;22.87;;;-5.70;1.00;;;;;;5027859;28;20189;-73
2024/01/12 05:30:30;;;;;;;47.90;21.60;;;-5.80;1.00;;;;;;5023367;28;20266;-74
2024/01/12 05:32:56;;;;;;;48.83;21.90;;;-5.70;1.00;;;;;;5018619;28;20304;-73
2024/01/12 05:35:21;;;;;;;51.33;21.63;;;-6.10;1.00;;;;;;5026252;28;20433;-73
2024/01/12 05:37:48;;;;;;;47.70;23.40;;;-5.60;1.00;;;;;;5029079;28;20560;-73
2024/01/12 05:40:13;;;;;;;54.80;23.90;;;-5.60;1.00;;;;;;5038818;28;20706;-73
2024/01/12 05:42:39;;;;;;;54.47;22.43;;;-5.50;1.00;;;;;;5030398;28;20424;-73
2024/01/12 05:45:05;;;;;;;58.03;24.00;;;-5.50;1.00;;;;;;5037997;28;20181;-74
2024/01/12 05:47:30;;;;;;;53.10;23.57;;;-5.30;1.00;;;;;;5026049;28;20326;-76
2024/01/12 05:49:56;;;;;;;58.17;23.63;;;-5.30;1.00;;;;;;5043315;28;20536;-73
2024/01/12 05:52:21;;;;;;;52.90;23.77;;;-5.00;1.00;;;;;;5034268;28;20343;-74
2024/01/12 05:54:47;;;;;;;47.33;22.13;;;-5.40;1.00;;;;;;5027290;28;20197;-73
2024/01/12 05:57:12;;;;;;;51.33;23.80;;;-4.90;1.00;;;;;;5018837;28;20415;-74
2024/01/12 05:59:38;;;;;;;51.80;23.70;;;-5.50;1.00;;;;;;5026592;28;20206;-73
2024/01/12 06:02:03;;;;;;;54.90;23.90;;;-5.30;1.00;;;;;;5024336;28;20192;-73
2024/01/12 06:04:29;;;;;;;58.60;25.47;;;-5.30;1.00;;;;;;5045901;28;20189;-72
2024/01/12 06:06:55;;;;;;;54.73;25.43;;;-5.20;1.00;;;;;;5028521;28;20217;-73
2024/01/12 06:09:20;;;;;;;53.17;23.57;;;-5.30;1.00;;;;;;5046874;28;20625;-73
2024/01/12 06:11:46;;;;;;;53.57;24.27;;;-5.30;1.00;;;;;;5022871;28;20671;-73
2024/01/12 06:14:15;;;;;;;54.10;23.70;;;-5.00;1.00;;;;;;5027144;28;20178;-74
2024/01/12 06:16:40;;;;;;;53.50;24.67;;;-5.30;1.00;;;;;;5027310;28;20181;-73
2024/01/12 06:19:07;;;;;;;55.03;23.47;;;-5.30;1.00;;;;;;5029776;28;20515;-72
2024/01/12 06:21:32;;;;;;;61.23;24.10;;;-5.30;1.00;;;;;;5014670;28;20508;-75
2024/01/12 06:23:58;;;;;;;48.60;22.77;;;-5.30;1.00;;;;;;5018643;28;20575;-75
2024/01/12 06:26:23;;;;;;;53.50;23.63;;;-5.00;1.00;;;;;;5029237;28;20662;-75
2024/01/12 06:28:49;;;;;;;53.90;22.43;;;-5.40;1.00;;;;;;5017737;28;20202;-75
2024/01/12 06:31:14;;;;;;;51.60;23.70;;;-5.20;1.00;;;;;;5027186;28;20259;-78
2024/01/12 06:33:40;;;;;;;51.60;23.50;;;-5.40;1.00;;;;;;5011123;28;20684;-73
2024/01/12 06:36:05;;;;;;;57.37;24.93;;;-5.90;1.00;;;;;;5036646;28;20188;-73
2024/01/12 06:38:32;;;;;;;52.83;21.97;;;-5.50;1.00;;;;;;5047089;28;20704;-74
2024/01/12 06:40:57;;;;;;;59.37;22.93;;;-5.20;1.00;;;;;;5029049;28;20615;-74
2024/01/12 06:43:23;;;;;;;54.43;22.60;;;-5.30;1.00;;;;;;5024795;28;20464;-76
2024/01/12 06:45:48;;;;;;;56.57;23.17;;;-5.70;1.00;;;;;;5042125;28;20196;-74
2024/01/12 06:48:14;;;;;;;53.70;24.50;;;-5.70;1.00;;;;;;5036310;28;20230;-73
2024/01/12 06:50:39;;;;;;;47.37;22.30;;;-5.70;1.00;;;;;;5033169;28;20281;-74
2024/01/12 06:53:08;;;;;;;53.43;22.37;;;-6.30;1.00;;;;;;5027338;28;20759;-73
2024/01/12 06:55:37;;;;;;;46.03;22.53;;;-5.80;1.00;;;;;;5023305;28;20208;-73
2024/01/12 06:58:03;;;;;;;45.50;21.40;;;-5.90;1.00;;;;;;5015843;28;20819;-73
2024/01/12 07:00:29;;;;;;;64.17;27.90;;;-5.80;1.00;;;;;;5042102;28;20425;-73
2024/01/12 07:02:54;;;;;;;70.93;28.70;;;-6.10;1.00;;;;;;5027292;28;20440;-73
2024/01/12 07:05:20;;;;;;;51.80;24.40;;;-6.00;1.00;;;;;;5033961;28;20752;-75
2024/01/12 07:07:46;;;;;;;48.57;21.83;;;;;;;;;;5024885;28;20212;-72
2024/01/12 07:10:11;;;;;;;52.27;23.60;;;-6.00;1.00;;;;;;5031195;28;20209;-73
2024/01/12 07:12:37;;;;;;;57.37;23.80;;;-5.80;1.00;;;;;;5020434;28;20233;-74
2024/01/12 07:15:04;;;;;;;59.57;24.00;;;-5.90;1.00;;;;;;5031959;28;20261;-74
2024/01/12 07:17:30;;;;;;;52.00;23.53;;;-6.30;1.00;;;;;;5013981;28;20938;-76
2024/01/12 07:19:55;;;;;;;54.33;24.33;;;-6.00;1.00;;;;;;5034404;28;20444;-74
2024/01/12 07:22:21;;;;;;;57.47;26.80;;;-5.60;1.00;;;;;;5018813;28;20277;-72
2024/01/12 07:24:48;;;;;;;61.07;24.87;;;-5.70;1.00;;;;;;5028102;28;20767;-77
2024/01/12 07:27:14;;;;;;;52.73;23.30;;;-5.70;1.00;;;;;;5022297;28;20721;-74
2024/01/12 07:29:39;;;;;;;55.80;23.13;;;-5.80;1.00;;;;;;5025491;28;20491;-73
2024/01/12 07:32:05;;;;;;;56.37;22.87;;;-5.80;1.00;;;;;;5025191;28;20208;-75
2024/01/12 07:34:31;;;;;;;56.55;24.67;;;-5.80;1.00;;;;;;5038135;28;20422;-75
2024/01/12 07:36:57;;;;;;;58.50;26.27;;;-5.60;1.00;;;;;;5039135;28;20262;-76
2024/01/12 07:39:23;;;;;;;55.30;26.20;;;-5.40;1.00;;;;;;5032999;28;20277;-77
2024/01/12 07:41:49;;;;;;;52.33;22.80;;;-5.20;1.00;;;;;;5020650;28;20900;-74
2024/01/12 07:44:15;;;;;;;60.33;23.67;;;-4.90;1.00;;;;;;5022028;28;20178;-75
2024/01/12 07:46:41;;;;;;;59.33;24.53;;;-4.80;1.00;;;;;;5024853;28;20281;-74
2024/01/12 07:49:07;;;;;;;60.97;25.40;;;-2.70;1.00;;;;;;5008856;28;20463;-71
2024/01/12 07:51:33;;;;;;;53.87;24.07;;;-5.20;1.00;;;;;;5023073;28;20433;-70
2024/01/12 07:53:58;;;;;;;52.43;25.23;;;-5.00;1.00;;;;;;5029525;28;20425;-72
2024/01/12 07:56:24;;;;;;;51.93;23.27;;;-5.00;1.00;;;;;;5025990;28;20190;-74
2024/01/12 07:58:49;;;;;;;54.17;25.30;;;-5.10;1.00;;;;;;5026177;28;20586;-70
2024/01/12 08:01:16;;;;;;;67.67;27.27;;;-5.00;1.00;;;;;;5020451;28;20190;-73
2024/01/12 08:03:43;;;;;;;64.30;28.73;;;-5.00;1.00;;;;;;5025382;28;20185;-75
2024/01/12 08:06:09;;;;;;;63.57;26.50;;;-5.00;1.00;;;;;;5022447;28;20471;-75
2024/01/12 08:08:34;;;;;;;74.47;29.13;;;-4.80;1.00;;;;;;5033758;28;20483;-75
2024/01/12 08:11:00;;;;;;;59.70;28.20;;;-4.80;1.00;;;;;;5031811;28;20323;-74
2024/01/12 08:13:25;;;;;;;63.30;27.13;;;-4.90;1.00;;;;;;5033345;28;20217;-73
2024/01/12 08:15:51;;;;;;;67.80;27.90;;;-4.60;1.00;;;;;;5027643;28;20221;-75
2024/01/12 08:18:18;;;;;;;70.50;29.80;;;-4.50;1.00;;;;;;5040500;28;20605;-75
2024/01/12 08:20:44;;;;;;;63.00;27.63;;;-4.30;1.00;;;;;;5019986;28;20201;-75
2024/01/12 08:23:10;;;;;;;62.80;26.17;;;-4.30;1.00;;;;;;5024071;28;20460;-74
2024/01/12 08:25:35;;;;;;;65.07;27.67;;;-4.10;1.00;;;;;;5030899;28;20220;-77
2024/01/12 08:28:01;;;;;;;60.93;25.77;;;-4.00;1.00;;;;;;5030859;28;20557;-74
2024/01/12 08:30:26;;;;;;;62.23;25.07;;;-3.80;1.00;;;;;;5027038;28;20178;-75
2024/01/12 08:32:52;;;;;;;59.67;24.07;;;;;;;;;;5036569;28;20201;-74
2024/01/12 08:35:18;;;;;;;58.60;25.37;;;-4.00;1.00;;;;;;5024821;28;20244;-74
2024/01/12 08:37:43;;;;;;;63.13;28.30;;;-3.50;1.00;;;;;;5024123;28;20432;-81
2024/01/12 08:40:09;;;;;;;53.30;24.40;;;-4.00;1.00;;;;;;5029716;28;20221;-75
2024/01/12 08:42:35;;;;;;;49.27;24.40;;;-3.80;1.00;;;;;;5024348;28;20190;-75
2024/01/12 08:45:00;;;;;;;55.57;25.00;;;-3.30;1.00;;;;;;5031966;28;20425;-74
2024/01/12 08:47:28;;;;;;;52.27;23.67;;;-3.70;1.00;;;;;;5031047;28;20209;-76
2024/01/12 08:49:54;;;;;;;48.23;23.27;;;-3.40;1.00;;;;;;5032012;28;20209;-75
2024/01/12 08:52:20;;;;;;;48.17;24.00;;;-3.50;1.00;;;;;;5016571;28;20487;-75
2024/01/12 08:54:45;;;;;;;58.87;23.17;;;-2.90;1.00;;;;;;5030431;28;20424;-75
2024/01/12 08:57:11;;;;;;;51.00;24.20;;;-2.90;1.00;;;;;;5030394;28;20656;-76
2024/01/12 08:59:36;;;;;;;49.70;22.60;;;-2.70;1.00;;;;;;5022182;28;20340;-79
2024/01/12 09:02:02;;;;;;;47.77;22.37;;;-2.60;1.00;;;;;;5035968;28;20193;-81
2024/01/12 09:04:28;;;;;;;46.93;20.70;;;-2.10;1.00;;;;;;5023937;28;20190;-75
2024/01/12 09:06:53;;;;;;;35.47;17.97;;;-2.00;1.00;;;;;;5019978;28;20174;-78
2024/01/12 09:09:19;;;;;;;36.53;17.33;;;-2.00;1.00;;;;;;5033247;28;21515;-75
2024/01/12 09:11:45;;;;;;;35.67;17.30;;;-2.20;1.00;;;;;;5015551;28;20198;-75
2024/01/12 09:14:10;;;;;;;32.53;16.73;;;-1.40;1.00;;;;;;5026309;28;20179;-74
2024/01/12 09:16:36;;;;;;;32.60;15.43;;;-0.90;1.00;;;;;;5029049;28;20268;-74
2024/01/12 09:19:02;;;;;;;31.80;15.93;;;-0.60;1.00;;;;;;5020988;28;20344;-75
2024/01/12 09:21:28;;;;;;;29.67;14.17;;;-0.20;1.00;;;;;;5026778;28;20189;-76
2024/01/12 09:23:53;;;;;;;28.87;12.90;;;0.10;1.00;;;;;;5020296;28;20992;-75
2024/01/12 09:26:19;;;;;;;26.13;12.90;;;0.60;1.00;;;;;;5033193;28;20182;-74
2024/01/12 09:28:44;;;;;;;29.47;14.13;;;0.50;1.00;;;;;;5032870;28;20275;-77
2024/01/12 09:31:10;;;;;;;28.67;12.10;;;0.00;1.00;;;;;;5021365;28;20178;-77
2024/01/12 09:33:35;;;;;;;29.10;13.47;;;0.50;1.00;;;;;;5028145;28;20210;-74
2024/01/12 09:36:04;;;;;;;26.50;13.97;;;0.10;1.00;;;;;;5031838;28;20268;-75
2024/01/12 09:38:29;;;;;;;38.43;12.30;;;0.40;1.00;;;;;;5024744;28;20267;-76
2024/01/12 09:40:58;;;;;;;24.80;12.57;;;0.40;1.00;;;;;;5012787;28;20418;-74
2024/01/12 09:43:27;;;;;;;35.83;14.33;;;-0.10;1.00;;;;;;5029859;28;20193;-75
2024/01/12 09:45:56;;;;;;;24.50;13.23;;;0.40;1.00;;;;;;5026075;28;20426;-76
2024/01/12 09:48:21;;;;;;;26.10;12.50;;;0.10;1.00;;;;;;5025195;28;20444;-75
2024/01/12 09:50:50;;;;;;;26.37;12.37;;;0.10;1.00;;;;;;5041101;28;20428;-78
2024/01/12 09:53:16;;;;;;;24.53;11.20;;;0.50;1.00;;;;;;5025744;28;20206;-73
2024/01/12 09:55:41;;;;;;;24.93;12.50;;;0.10;1.00;;;;;;5011453;28;20818;-75
2024/01/12 09:58:10;;;;;;;28.43;12.03;;;0.10;1.00;;;;;;5028153;28;20690;-74
2024/01/12 10:00:37;;;;;;;26.87;13.03;;;0.50;1.00;;;;;;5020960;28;20265;-76
2024/01/12 10:03:05;;;;;;;26.70;12.70;;;0.30;1.00;;;;;;5028930;28;20918;-74
2024/01/12 10:05:31;;;;;;;29.53;13.57;;;0.40;1.00;;;;;;5021624;28;20440;-75
2024/01/12 10:07:57;;;;;;;24.17;11.47;;;0.70;1.00;;;;;;5026502;28;20444;-74
2024/01/12 10:10:22;;;;;;;24.60;12.87;;;0.60;1.00;;;;;;5023971;28;20427;-74
2024/01/12 10:12:51;;;;;;;25.70;12.77;;;0.60;1.00;;;;;;5025386;28;20599;-75
2024/01/12 10:15:18;;;;;;;24.50;11.73;;;0.80;1.00;;;;;;5023326;28;20244;-74
2024/01/12 10:17:43;;;;;;;21.30;10.80;;;0.60;1.00;;;;;;5019817;28;20425;-75
2024/01/12 10:20:09;;;;;;;20.80;9.80;;;0.90;1.00;;;;;;5021537;28;20503;-74
2024/01/12 10:22:35;;;;;;;20.27;10.10;;;0.60;1.00;;;;;;5027120;28;20190;-75
2024/01/12 10:25:03;;;;;;;22.60;10.57;;;0.60;1.00;;;;;;5027866;28;20424;-75
2024/01/12 10:27:32;;;;;;;18.53;8.90;;;0.60;1.00;;;;;;5016719;28;20213;-76
2024/01/12 10:29:57;;;;;;;16.40;9.70;;;0.70;1.00;;;;;;5028343;28;21089;-75
2024/01/12 10:32:25;;;;;;;19.93;10.50;;;1.20;1.00;;;;;;5031502;28;20575;-75
2024/01/12 10:34:55;;;;;;;16.00;8.70;;;1.30;1.00;;;;;;5016944;28;20185;-75
2024/01/12 10:37:21;;;;;;;24.00;10.53;;;1.40;1.00;;;;;;5031268;28;20420;-74
2024/01/12 10:39:49;;;;;;;24.27;11.10;;;1.30;1.00;;;;;;5035074;28;20473;-76
2024/01/12 10:42:16;;;;;;;26.00;11.07;;;1.50;1.00;;;;;;5024662;28;20420;-75
2024/01/12 10:44:43;;;;;;;21.50;10.50;;;1.50;1.00;;;;;;5031653;28;20445;-74
2024/01/12 10:47:20;;;;;;;21.00;10.10;;;1.10;1.00;;;;;;5020377;28;20433;-74
2024/01/12 10:50:08;;;;;;;22.60;11.00;;;1.30;1.00;;;;;;5018467;28;20988;-74
2024/01/12 10:53:02;;;;;;;23.23;11.27;;;1.30;1.00;;;;;;5028827;28;20467;-75
2024/01/12 10:55:33;;;;;;;24.10;10.10;;;1.40;1.00;;;;;;5022946;28;20423;-74
2024/01/12 10:58:02;;;;;;;22.67;10.80;;;1.60;1.00;;;;;;5021995;28;20419;-74
2024/01/12 11:00:30;;;;;;;20.47;11.53;;;2.00;1.00;;;;;;5035821;28;20419;-74
2024/01/12 11:02:57;;;;;;;20.90;10.70;;;1.70;1.00;;;;;;5015036;28;20938;-74
2024/01/12 11:05:25;;;;;;;17.67;9.90;;;2.00;1.00;;;;;;5030053;28;20428;-74
2024/01/12 11:07:51;;;;;;;17.57;9.40;;;1.50;1.00;;;;;;5021649;28;21004;-74
2024/01/12 11:10:19;;;;;;;20.57;11.03;;;1.50;1.00;;;;;;5019577;28;20515;-74
2024/01/12 11:12:46;;;;;;;19.30;10.53;;;1.50;1.00;;;;;;5028040;28;20460;-76
2024/01/12 11:15:11;;;;;;;20.60;10.90;;;2.00;1.00;;;;;;5029307;28;20428;-74
2024/01/12 11:17:39;;;;;;;20.63;10.57;;;1.80;1.00;;;;;;5033831;28;20438;-75
2024/01/12 11:20:10;;;;;;;17.40;9.33;;;1.60;1.00;;;;;;5017457;28;20198;-77
2024/01/12 11:22:45;;;;;;;19.30;10.37;;;1.50;1.00;;;;;;5011519;28;20474;-74
2024/01/12 11:25:12;;;;;;;20.43;10.00;;;1.80;1.00;;;;;;5022771;28;20419;-75
2024/01/12 11:27:39;;;;;;;18.57;9.60;;;1.60;1.00;;;;;;5031074;28;20452;-74
2024/01/12 11:30:06;;;;;;;17.07;10.50;;;1.80;1.00;;;;;;5034021;28;20535;-74
2024/01/12 11:32:31;;;;;;;19.90;10.80;;;2.00;1.00;;;;;;5026295;28;20499;-75
2024/01/12 11:35:14;;;;;;;16.07;8.97;;;2.00;1.00;;;;;;5041548;28;20459;-77
2024/01/12 11:37:42;;;;;;;18.83;9.70;;;1.90;1.00;;;;;;5032945;28;20425;-75
2024/01/12 11:40:15;;;;;;;17.83;9.23;;;1.90;1.00;;;;;;5036844;28;20435;-75
2024/01/12 11:42:43;;;;;;;14.63;8.40;;;2.00;1.00;;;;;;5035314;28;20441;-75
2024/01/12 11:45:10;;;;;;;17.87;9.20;;;2.20;1.00;;;;;;5031621;28;20436;-77
2024/01/12 11:47:40;;;;;;;22.10;9.30;;;2.30;1.00;;;;;;5032481;28;20428;-78
2024/01/12 11:50:07;;;;;;;16.50;9.53;;;2.40;1.00;;;;;;5025959;28;20481;-76
2024/01/12 11:52:33;;;;;;;19.10;10.27;;;2.50;1.00;;;;;;5020321;28;20465;-74
2024/01/12 11:54:58;;;;;;;19.77;9.37;;;2.80;1.00;;;;;;5021241;28;20433;-77
2024/01/12 11:57:27;;;;;;;22.53;9.37;;;3.20;1.00;;;;;;5035184;28;20186;-75
2024/01/12 11:59:56;;;;;;;17.53;9.50;;;3.20;1.00;;;;;;5022932;28;20212;-76
2024/01/12 12:02:25;;;;;;;21.03;10.70;;;3.00;1.00;;;;;;5026534;28;20423;-74
2024/01/12 12:04:54;;;;;;;21.20;9.90;;;3.00;1.00;;;;;;5029747;28;20910;-75
2024/01/12 12:07:24;;;;;;;23.17;10.93;;;3.00;1.00;;;;;;5036291;28;20427;-73
2024/01/12 12:09:49;;;;;;;26.40;12.00;;;3.00;1.00;;;;;;5033951;28;20544;-73
2024/01/12 12:12:15;;;;;;;28.70;13.70;;;2.90;1.00;;;;;;5027791;28;20556;-73
2024/01/12 12:15:07;;;;;;;19.23;9.93;;;2.80;1.00;;;;;;5023472;28;20183;-73
2024/01/12 12:17:38;;;;;;;22.90;10.43;;;2.60;1.00;;;;;;5031804;28;20182;-77
2024/01/12 12:20:13;;;;;;;16.80;9.47;;;2.30;1.00;;;;;;5030379;28;20478;-75
2024/01/12 12:22:39;;;;;;;15.07;9.10;;;2.30;1.00;;;;;;5030515;28;20523;-72
2024/01/12 12:25:12;;;;;;;28.83;12.70;;;2.50;1.00;;;;;;5027471;28;20483;-74
2024/01/12 12:27:43;;;;;;;29.67;13.30;;;2.70;1.00;;;;;;5031106;28;20489;-74
2024/01/12 12:30:10;;;;;;;16.10;8.67;;;2.10;1.00;;;;;;5026951;28;20456;-74
2024/01/12 12:32:38;;;;;;;18.63;9.83;;;2.10;1.00;;;;;;5035623;28;20460;-77
2024/01/12 12:35:17;;;;;;;23.90;11.00;;;2.40;1.00;;;;;;5030869;28;20964;-76
2024/01/12 12:37:44;;;;;;;19.70;10.13;;;1.90;1.00;;;;;;5038952;28;20911;-73